Time,TemperatureF,DewpointF,PressureIn,WindDirection,WindDirectionDegrees,WindSpeedMPH,WindSpeedGustMPH,Humidity,HourlyPrecipIn,Conditions,Clouds,dailyrainin,SolarRadiationWatts/m^2,SoftwareType,DateUTC
2017-01-22 00:01:00,50.9,44.9,29.37,NNW,336,4.6,4.6,80,0.00,OVC,,0.00,0.0,WeatherDisplay:10.37,2017-01-22 06:01:00,
2017-01-22 00:06:00,50.9,44.9,29.36,NNW,336,3.5,3.5,80,0.00,OVC,,0.00,0.0,WeatherDisplay:10.37,2017-01-22 06:06:00,
2017-01-22 00:11:00,50.8,44.9,29.36,NNE,16,5.8,5.8,80,0.00,OVC,,0.00,0.0,WeatherDisplay:10.37,2017-01-22 06:11:00,
2017-01-22 00:16:00,50.7,44.4,29.36,North,360,6.0,6.0,79,0.00,OVC,,0.00,0.0,WeatherDisplay:10.37,2017-01-22 06:16:00,
2017-01-22 00:21:00,50.7,44.4,29.36,North,360,5.8,5.8,79,0.00,OVC,,0.00,0.0,WeatherDisplay:10.37,2017-01-22 06:21:00,
2017-01-22 00:26:00,50.7,44.4,29.36,North,9,4.6,4.6,79,0.00,OVC,,0.00,0.0,WeatherDisplay:10.37,2017-01-22 06:26:00,
2017-01-22 00:31:00,50.7,44.1,29.36,North,10,3.5,3.5,78,0.00,OVC,,0.00,0.0,WeatherDisplay:10.37,2017-01-22 06:31:00,
2017-01-22 00:36:00,50.8,44.2,29.36,North,10,4.6,4.6,78,0.00,OVC,,0.00,0.0,WeatherDisplay:10.37,2017-01-22 06:36:00,
2017-01-22 00:41:00,50.8,44.2,29.35,North,11,8.1,8.1,78,0.00,OVC,,0.00,0.0,WeatherDisplay:10.37,2017-01-22 06:41:00,
2017-01-22 00:46:00,50.8,44.2,29.36,North,11,6.9,6.9,78,0.00,OVC,,0.00,0.0,WeatherDisplay:10.37,2017-01-22 06:46:00,
2017-01-22 00:52:00,50.7,44.1,29.36,North,11,4.6,4.6,78,0.00,OVC,,0.00,0.0,WeatherDisplay:10.37,2017-01-22 06:52:00,
2017-01-22 00:57:00,50.6,44.0,29.35,North,11,4.6,4.6,78,0.00,OVC,,0.00,0.0,WeatherDisplay:10.37,2017-01-22 06:57:00,
2017-01-22 01:01:00,50.7,44.4,29.34,North,11,4.6,4.6,79,0.00,OVC,,0.00,0.0,WeatherDisplay:10.37,2017-01-22 07:01:00,
2017-01-22 01:06:00,50.6,44.3,29.34,NNE,19,10.4,10.4,79,0.00,OVC,,0.00,0.0,WeatherDisplay:10.37,2017-01-22 07:06:00,
2017-01-22 01:12:00,50.5,44.2,29.33,North,355,9.2,9.2,79,0.00,OVC,,0.00,0.0,WeatherDisplay:10.37,2017-01-22 07:12:00,
2017-01-22 01:17:00,50.4,44.5,29.34,North,355,3.5,3.5,80,0.00,OVC,,0.00,0.0,WeatherDisplay:10.37,2017-01-22 07:17:00,
2017-01-22 01:22:00,50.4,44.5,29.35,North,355,1.2,1.2,80,0.00,OVC,,0.00,0.0,WeatherDisplay:10.37,2017-01-22 07:22:00,
2017-01-22 01:27:00,50.3,44.4,29.35,North,355,4.6,4.6,80,0.00,OVC,,0.00,0.0,WeatherDisplay:10.37,2017-01-22 07:27:00,
2017-01-22 01:32:00,50.2,44.3,29.35,North,355,3.5,3.5,80,0.00,OVC,,0.00,0.0,WeatherDisplay:10.37,2017-01-22 07:32:00,
2017-01-22 01:37:00,50.2,44.6,29.35,North,355,3.5,3.5,81,0.00,OVC,,0.00,0.0,WeatherDisplay:10.37,2017-01-22 07:37:00,
2017-01-22 01:42:00,50.1,44.5,29.35,North,355,5.8,5.8,81,0.00,OVC,,0.00,0.0,WeatherDisplay:10.37,2017-01-22 07:42:00,
2017-01-22 01:47:00,50.1,44.8,29.36,North,351,5.8,5.8,82,0.00,OVC,,0.00,0.0,WeatherDisplay:10.37,2017-01-22 07:47:00,
2017-01-22 01:52:00,50.0,44.7,29.36,North,351,3.5,3.5,82,0.00,OVC,,0.00,0.0,WeatherDisplay:10.37,2017-01-22 07:52:00,
2017-01-22 01:57:00,49.9,44.6,29.36,North,351,3.0,3.0,82,0.00,OVC,,0.00,0.0,WeatherDisplay:10.37,2017-01-22 07:57:00,
2017-01-22 02:02:00,49.8,44.8,29.36,North,351,5.8,5.8,83,0.00,OVC,,0.00,0.0,WeatherDisplay:10.37,2017-01-22 08:02:00,
2017-01-22 02:07:00,49.7,44.7,29.36,North,355,3.5,3.5,83,0.00,OVC,,0.00,0.0,WeatherDisplay:10.37,2017-01-22 08:07:00,
2017-01-22 02:12:00,49.6,44.6,29.36,North,355,4.0,4.0,83,0.00,OVC,,0.00,0.0,WeatherDisplay:10.37,2017-01-22 08:12:00,
2017-01-22 02:17:00,49.5,44.9,29.36,North,355,5.8,5.8,84,0.00,OVC,,0.00,0.0,WeatherDisplay:10.37,2017-01-22 08:17:00,
2017-01-22 02:22:00,49.4,44.8,29.36,North,355,3.5,3.5,84,0.00,OVC,,0.00,0.0,WeatherDisplay:10.37,2017-01-22 08:22:00,
2017-01-22 02:27:00,49.4,45.1,29.36,North,355,4.6,4.6,85,0.00,OVC,,0.00,0.0,WeatherDisplay:10.37,2017-01-22 08:27:00,
2017-01-22 02:32:00,49.4,45.1,29.36,North,355,8.1,8.1,85,0.00,OVC,,0.00,0.0,WeatherDisplay:10.37,2017-01-22 08:32:00,
2017-01-22 02:37:00,49.5,45.5,29.36,North,355,4.6,4.6,86,0.00,OVC,,0.00,0.0,WeatherDisplay:10.37,2017-01-22 08:37:00,
2017-01-22 02:42:00,49.7,45.7,29.36,NNW,348,3.5,3.5,86,0.00,OVC,,0.00,0.0,WeatherDisplay:10.37,2017-01-22 08:42:00,
2017-01-22 02:47:00,49.9,45.9,29.37,North,355,2.3,2.3,86,0.00,OVC,,0.00,0.0,WeatherDisplay:10.37,2017-01-22 08:47:00,
2017-01-22 02:52:00,50.1,46.1,29.37,North,355,2.3,2.3,86,0.00,OVC,,0.00,0.0,WeatherDisplay:10.37,2017-01-22 08:52:00,
2017-01-22 02:57:00,50.1,46.1,29.38,North,355,1.2,1.2,86,0.00,OVC,,0.00,0.0,WeatherDisplay:10.37,2017-01-22 08:57:00,
2017-01-22 03:02:00,50.2,46.2,29.38,North,355,2.3,2.3,86,0.00,OVC,,0.00,0.0,WeatherDisplay:10.37,2017-01-22 09:02:00,
2017-01-22 03:07:00,50.3,46.6,29.38,North,355,3.5,3.5,87,0.00,OVC,,0.00,0.0,WeatherDisplay:10.37,2017-01-22 09:07:00,
2017-01-22 03:12:00,50.5,46.8,29.38,North,355,3.5,3.5,87,0.00,OVC,,0.00,0.0,WeatherDisplay:10.37,2017-01-22 09:12:00,
2017-01-22 03:17:00,50.5,46.8,29.38,NNW,348,9.2,9.2,87,0.00,OVC,,0.00,0.0,WeatherDisplay:10.37,2017-01-22 09:17:00,
2017-01-22 03:22:00,50.5,46.8,29.38,North,350,4.0,4.0,87,0.00,OVC,,0.00,0.0,WeatherDisplay:10.37,2017-01-22 09:22:00,
2017-01-22 03:27:00,50.5,46.8,29.38,North,350,3.5,3.5,87,0.00,OVC,,0.00,0.0,WeatherDisplay:10.37,2017-01-22 09:27:00,
2017-01-22 03:32:00,50.3,46.6,29.38,North,351,5.8,5.8,87,0.00,OVC,,0.00,0.0,WeatherDisplay:10.37,2017-01-22 09:32:00,
2017-01-22 03:37:00,50.3,46.6,29.39,North,350,5.8,5.8,87,0.00,OVC,,0.00,0.0,WeatherDisplay:10.37,2017-01-22 09:37:00,
2017-01-22 03:42:00,50.3,46.6,29.39,North,350,4.6,4.6,87,0.00,OVC,,0.00,0.0,WeatherDisplay:10.37,2017-01-22 09:42:00,
2017-01-22 03:47:00,50.3,46.6,29.39,North,351,5.0,5.0,87,0.00,OVC,,0.00,0.0,WeatherDisplay:10.37,2017-01-22 09:47:00,
2017-01-22 03:52:00,50.2,46.2,29.39,North,351,5.8,5.8,86,0.00,OVC,,0.00,0.0,WeatherDisplay:10.37,2017-01-22 09:52:00,
2017-01-22 03:57:00,50.1,46.1,29.40,North,350,4.6,4.6,86,0.00,OVC,,0.00,0.0,WeatherDisplay:10.37,2017-01-22 09:57:00,
2017-01-22 04:02:00,49.8,46.1,29.40,North,350,5.0,5.0,87,0.00,OVC,,0.00,0.0,WeatherDisplay:10.37,2017-01-22 10:02:00,
2017-01-22 04:07:00,49.5,45.8,29.40,NNW,346,4.6,4.6,87,0.00,OVC,,0.00,0.0,WeatherDisplay:10.37,2017-01-22 10:07:00,
2017-01-22 04:12:00,49.4,45.7,29.40,NNW,346,3.5,3.5,87,0.00,OVC,,0.00,0.0,WeatherDisplay:10.37,2017-01-22 10:12:00,
2017-01-22 04:17:00,49.3,45.6,29.40,NNW,346,8.1,8.1,87,0.00,OVC,,0.00,0.0,WeatherDisplay:10.37,2017-01-22 10:17:00,
2017-01-22 04:22:00,49.1,45.4,29.41,NNW,345,5.8,5.8,87,0.00,OVC,,0.00,0.0,WeatherDisplay:10.37,2017-01-22 10:22:00,
2017-01-22 04:27:00,49.1,45.7,29.41,NNW,345,5.8,5.8,88,0.00,OVC,,0.00,0.0,WeatherDisplay:10.37,2017-01-22 10:27:00,
2017-01-22 04:32:00,49.0,45.6,29.41,NW,320,8.1,8.1,88,0.00,OVC,,0.00,0.0,WeatherDisplay:10.37,2017-01-22 10:32:00,
2017-01-22 04:37:00,49.0,45.6,29.42,NW,304,4.6,4.6,88,0.00,OVC,,0.00,0.0,WeatherDisplay:10.37,2017-01-22 10:37:00,
2017-01-22 04:42:00,48.9,45.5,29.42,NW,321,9.2,9.2,88,0.00,OVC,,0.00,0.0,WeatherDisplay:10.37,2017-01-22 10:42:00,
2017-01-22 04:47:00,48.8,45.4,29.43,NW,323,5.8,5.8,88,0.00,BKN,,0.00,0.0,WeatherDisplay:10.37,2017-01-22 10:47:00,
2017-01-22 04:52:00,48.7,45.3,29.43,NNW,344,9.2,9.2,88,0.00,BKN,,0.00,0.0,WeatherDisplay:10.37,2017-01-22 10:52:00,
2017-01-22 04:57:00,48.8,45.7,29.43,WNW,298,12.0,12.0,89,0.00,BKN,,0.00,0.0,WeatherDisplay:10.37,2017-01-22 10:57:00,
2017-01-22 05:02:00,48.9,45.8,29.43,NNW,329,10.4,10.4,89,0.00,OVC,,0.00,0.0,WeatherDisplay:10.37,2017-01-22 11:02:00,
2017-01-22 05:07:00,49.0,45.9,29.44,NNW,338,10.4,10.4,89,0.00,OVC,,0.00,0.0,WeatherDisplay:10.37,2017-01-22 11:07:00,
2017-01-22 05:12:00,49.1,46.0,29.44,NNW,338,11.5,11.5,89,0.00,OVC,,0.00,0.0,WeatherDisplay:10.37,2017-01-22 11:12:00,
2017-01-22 05:17:00,49.1,46.0,29.44,NNW,345,8.1,8.1,89,0.00,OVC,,0.00,0.0,WeatherDisplay:10.37,2017-01-22 11:17:00,
2017-01-22 05:22:00,49.0,45.9,29.45,NNW,348,6.0,6.0,89,0.00,OVC,,0.00,0.0,WeatherDisplay:10.37,2017-01-22 11:22:00,
2017-01-22 05:27:00,49.0,45.9,29.45,NW,326,8.1,8.1,89,0.00,OVC,,0.00,0.0,WeatherDisplay:10.37,2017-01-22 11:27:00,
2017-01-22 05:32:00,49.0,45.9,29.45,North,9,9.2,9.2,89,0.00,OVC,,0.00,0.0,WeatherDisplay:10.37,2017-01-22 11:32:00,
2017-01-22 05:37:00,48.9,45.8,29.45,North,350,8.1,8.1,89,0.00,OVC,,0.00,0.0,WeatherDisplay:10.37,2017-01-22 11:37:00,
2017-01-22 05:42:00,48.9,45.8,29.46,NNW,347,9.2,9.2,89,0.00,OVC,,0.00,0.0,WeatherDisplay:10.37,2017-01-22 11:42:00,
2017-01-22 05:47:00,48.9,45.8,29.46,NNW,331,9.2,9.2,89,0.00,OVC,,0.00,0.0,WeatherDisplay:10.37,2017-01-22 11:47:00,
2017-01-22 05:52:00,48.9,45.8,29.46,North,351,10.4,10.4,89,0.00,OVC,,0.00,0.0,WeatherDisplay:10.37,2017-01-22 11:52:00,
2017-01-22 05:57:00,48.9,45.8,29.46,North,355,11.5,11.5,89,0.00,OVC,,0.00,0.0,WeatherDisplay:10.37,2017-01-22 11:57:00,
2017-01-22 06:02:00,48.9,46.1,29.47,NW,317,8.1,8.1,90,0.00,-RA,,0.00,0.0,WeatherDisplay:10.37,2017-01-22 12:02:00,
2017-01-22 06:07:00,49.0,46.2,29.47,NNW,340,8.0,8.0,90,0.00,-RA,,0.00,0.0,WeatherDisplay:10.37,2017-01-22 12:07:00,
2017-01-22 06:12:00,49.1,46.3,29.47,NNW,342,5.8,5.8,90,0.00,-RA,,0.00,0.0,WeatherDisplay:10.37,2017-01-22 12:12:00,
2017-01-22 06:17:00,49.2,46.4,29.48,NNW,330,8.1,8.1,90,0.00,-RA,,0.00,0.0,WeatherDisplay:10.37,2017-01-22 12:17:00,
2017-01-22 06:22:00,49.4,46.6,29.48,NW,325,9.2,9.2,90,0.00,OVC,,0.00,0.0,WeatherDisplay:10.37,2017-01-22 12:22:00,
2017-01-22 06:27:00,49.4,46.6,29.48,NNW,334,8.1,8.1,90,0.00,OVC,,0.00,0.0,WeatherDisplay:10.37,2017-01-22 12:27:00,
2017-01-22 06:32:00,49.4,46.9,29.48,NNW,343,11.5,11.5,91,0.00,OVC,,0.00,0.0,WeatherDisplay:10.37,2017-01-22 12:32:00,
2017-01-22 06:37:00,49.5,47.0,29.49,NNW,328,10.4,10.4,91,0.01,RA,,0.01,0.0,WeatherDisplay:10.37,2017-01-22 12:37:00,
2017-01-22 06:42:00,49.4,46.9,29.49,North,355,12.7,12.7,91,0.01,RA,,0.01,0.0,WeatherDisplay:10.37,2017-01-22 12:42:00,
2017-01-22 06:47:00,49.4,46.9,29.49,North,355,15.0,15.0,91,0.02,RA,,0.02,0.0,WeatherDisplay:10.37,2017-01-22 12:47:00,
2017-01-22 06:52:00,49.3,46.8,29.49,North,350,23.0,23.0,91,0.02,-RA,,0.02,0.0,WeatherDisplay:10.37,2017-01-22 12:52:00,
2017-01-22 06:57:00,49.2,46.7,29.50,NNW,338,18.4,18.4,91,0.03,-RA,,0.03,0.0,WeatherDisplay:10.37,2017-01-22 12:57:00,
2017-01-22 07:02:00,49.1,46.6,29.50,North,351,16.1,16.1,91,0.03,-RA,,0.03,0.0,WeatherDisplay:10.37,2017-01-22 13:02:00,
2017-01-22 07:07:00,48.8,46.3,29.51,NNW,348,19.6,19.6,91,0.04,-RA,,0.04,0.0,WeatherDisplay:10.37,2017-01-22 13:07:00,
2017-01-22 07:12:00,48.7,46.2,29.51,NNW,332,13.8,13.8,91,0.04,-RA,,0.04,0.0,WeatherDisplay:10.37,2017-01-22 13:12:00,
2017-01-22 07:17:00,48.5,46.0,29.52,NNW,329,19.6,19.6,91,0.05,-RA,,0.05,0.0,WeatherDisplay:10.37,2017-01-22 13:17:00,
2017-01-22 07:22:00,48.3,45.8,29.52,NW,322,19.0,19.0,91,0.05,-RA,,0.05,0.0,WeatherDisplay:10.37,2017-01-22 13:22:00,
2017-01-22 07:27:00,48.2,45.7,29.52,NNW,348,17.3,17.3,91,0.05,-RA,,0.06,0.0,WeatherDisplay:10.37,2017-01-22 13:27:00,
2017-01-22 07:32:00,48.2,45.7,29.53,NNW,336,17.3,17.3,91,0.06,RA,,0.06,0.0,WeatherDisplay:10.37,2017-01-22 13:32:00,
2017-01-22 07:37:00,48.1,45.6,29.54,NW,323,17.0,17.0,91,0.06,RA,,0.07,0.0,WeatherDisplay:10.37,2017-01-22 13:37:00,
2017-01-22 07:42:00,48.1,45.6,29.54,NW,319,11.5,11.5,91,0.07,RA,,0.08,0.0,WeatherDisplay:10.37,2017-01-22 13:42:00,
2017-01-22 07:47:00,48.0,45.5,29.55,North,360,11.5,11.5,91,0.07,RA,,0.09,0.0,WeatherDisplay:10.37,2017-01-22 13:47:00,
2017-01-22 07:52:00,48.0,45.5,29.55,North,355,21.0,21.0,91,0.08,RA,,0.10,0.0,WeatherDisplay:10.37,2017-01-22 13:52:00,
2017-01-22 07:57:00,48.0,45.5,29.55,NNW,338,19.6,19.6,91,0.07,RA,,0.11,0.0,WeatherDisplay:10.37,2017-01-22 13:57:00,
2017-01-22 08:02:00,47.9,45.4,29.56,NNW,334,17.0,17.0,91,0.08,-RA,,0.11,7.0,WeatherDisplay:10.37,2017-01-22 14:02:00,
2017-01-22 08:07:00,47.9,45.4,29.56,NNW,346,13.8,13.8,91,0.07,-RA,,0.11,7.0,WeatherDisplay:10.37,2017-01-22 14:07:00,
2017-01-22 08:12:00,47.9,45.4,29.56,NNW,346,18.4,18.4,91,0.08,-RA,,0.12,11.0,WeatherDisplay:10.37,2017-01-22 14:12:00,
2017-01-22 08:17:00,47.9,45.4,29.57,NNW,340,16.1,16.1,91,0.07,-RA,,0.12,14.0,WeatherDisplay:10.37,2017-01-22 14:17:00,
2017-01-22 08:22:00,47.8,45.3,29.57,NW,323,15.0,15.0,91,0.07,-RA,,0.12,12.0,WeatherDisplay:10.37,2017-01-22 14:22:00,
2017-01-22 08:27:00,47.9,45.4,29.58,North,349,13.0,13.0,91,0.07,-RA,,0.12,18.0,WeatherDisplay:10.37,2017-01-22 14:27:00,
2017-01-22 08:32:00,47.9,45.4,29.58,NNW,348,16.0,16.0,91,0.06,-RA,,0.12,23.0,WeatherDisplay:10.37,2017-01-22 14:32:00,
2017-01-22 08:37:00,47.9,45.4,29.58,NNW,327,19.6,19.6,91,0.05,-RA,,0.12,25.0,WeatherDisplay:10.37,2017-01-22 14:37:00,
2017-01-22 08:42:00,47.9,45.4,29.59,NNW,328,17.3,17.3,91,0.04,-RA,,0.12,26.0,WeatherDisplay:10.37,2017-01-22 14:42:00,
2017-01-22 08:47:00,47.9,45.4,29.59,NW,321,17.3,17.3,91,0.03,-RA,,0.12,37.0,WeatherDisplay:10.37,2017-01-22 14:47:00,
2017-01-22 08:52:00,48.0,45.5,29.59,NNW,331,13.8,13.8,91,0.02,-RA,,0.12,60.0,WeatherDisplay:10.37,2017-01-22 14:52:00,
2017-01-22 08:57:00,48.1,45.6,29.59,NNW,334,15.0,15.0,91,0.02,-RA,,0.12,65.0,WeatherDisplay:10.37,2017-01-22 14:57:00,
2017-01-22 09:02:00,48.1,45.6,29.60,NW,317,16.1,16.1,91,0.01,OVC,,0.12,79.0,WeatherDisplay:10.37,2017-01-22 15:02:00,
2017-01-22 09:07:00,48.1,45.6,29.60,NW,325,11.5,11.5,91,0.01,OVC,,0.12,81.0,WeatherDisplay:10.37,2017-01-22 15:07:00,
2017-01-22 09:12:00,48.1,45.6,29.61,NNW,344,11.5,11.5,91,0.00,OVC,,0.12,93.0,WeatherDisplay:10.37,2017-01-22 15:12:00,
2017-01-22 09:17:00,48.1,45.6,29.61,NNW,336,12.7,12.7,91,0.01,RA,,0.13,107.0,WeatherDisplay:10.37,2017-01-22 15:17:00,
2017-01-22 09:22:00,48.2,45.7,29.62,NNW,345,15.0,15.0,91,0.01,RA,,0.13,116.0,WeatherDisplay:10.37,2017-01-22 15:22:00,
2017-01-22 09:27:00,48.3,45.8,29.62,NW,306,16.1,16.1,91,0.01,OVC,,0.13,114.0,WeatherDisplay:10.37,2017-01-22 15:27:00,
2017-01-22 09:32:00,48.3,45.8,29.62,NW,321,16.1,16.1,91,0.01,OVC,,0.13,127.0,WeatherDisplay:10.37,2017-01-22 15:32:00,
2017-01-22 09:37:00,48.4,45.6,29.63,NNW,333,16.1,16.1,90,0.01,OVC,,0.13,148.0,WeatherDisplay:10.37,2017-01-22 15:37:00,
2017-01-22 09:42:00,48.5,45.7,29.63,NW,321,12.7,12.7,90,0.01,OVC,,0.13,155.0,WeatherDisplay:10.37,2017-01-22 15:42:00,
2017-01-22 09:47:00,48.7,45.9,29.64,North,355,13.0,13.0,90,0.01,OVC,,0.13,167.0,WeatherDisplay:10.37,2017-01-22 15:47:00,
2017-01-22 09:52:00,48.8,46.0,29.64,NNW,346,15.0,15.0,90,0.01,OVC,,0.13,169.0,WeatherDisplay:10.37,2017-01-22 15:52:00,
2017-01-22 09:58:00,49.0,45.9,29.65,NNE,13,15.0,15.0,89,0.01,OVC,,0.13,225.0,WeatherDisplay:10.37,2017-01-22 15:58:00,
2017-01-22 10:03:00,49.1,45.7,29.65,NNW,334,17.3,17.3,88,0.01,CLR,,0.13,211.0,WeatherDisplay:10.37,2017-01-22 16:03:00,
2017-01-22 10:08:00,49.3,45.9,29.66,North,360,17.3,17.3,88,0.01,CLR,,0.13,255.0,WeatherDisplay:10.37,2017-01-22 16:08:00,
2017-01-22 10:13:00,49.6,45.9,29.66,North,11,20.7,20.7,87,0.01,CLR,,0.13,257.0,WeatherDisplay:10.37,2017-01-22 16:13:00,
2017-01-22 10:18:00,49.8,45.8,29.66,North,5,13.8,13.8,86,0.00,CLR,,0.13,236.0,WeatherDisplay:10.37,2017-01-22 16:18:00,
2017-01-22 10:23:00,50.1,45.8,29.67,NNE,13,21.9,21.9,85,0.00,CLR,,0.13,281.0,WeatherDisplay:10.37,2017-01-22 16:23:00,
2017-01-22 10:27:00,50.3,45.6,29.67,North,350,21.9,21.9,84,0.00,CLR,,0.13,299.0,WeatherDisplay:10.37,2017-01-22 16:27:00,
2017-01-22 10:33:00,50.6,45.6,29.67,North,5,19.6,19.6,83,0.00,CLR,,0.13,315.0,WeatherDisplay:10.37,2017-01-22 16:33:00,
2017-01-22 10:37:00,50.7,45.1,29.67,North,355,19.6,19.6,81,0.00,CLR,,0.13,311.0,WeatherDisplay:10.37,2017-01-22 16:37:00,
2017-01-22 10:43:00,50.8,45.2,29.68,NNW,329,16.1,16.1,81,0.00,CLR,,0.13,278.0,WeatherDisplay:10.37,2017-01-22 16:43:00,
2017-01-22 10:48:00,50.8,45.5,29.69,NNW,338,18.0,18.0,82,0.00,CLR,,0.13,232.0,WeatherDisplay:10.37,2017-01-22 16:48:00,
2017-01-22 10:53:00,50.6,45.0,29.69,North,360,18.4,18.4,81,0.00,CLR,,0.13,260.0,WeatherDisplay:10.37,2017-01-22 16:53:00,
2017-01-22 10:57:00,50.6,45.0,29.69,North,355,13.8,13.8,81,0.00,CLR,,0.13,274.0,WeatherDisplay:10.37,2017-01-22 16:57:00,
2017-01-22 11:02:00,50.8,45.2,29.69,NW,325,11.5,11.5,81,0.00,CLR,,0.13,297.0,WeatherDisplay:10.37,2017-01-22 17:02:00,
2017-01-22 11:08:00,51.2,45.6,29.70,NNW,340,11.5,11.5,81,0.00,CLR,,0.13,418.0,WeatherDisplay:10.37,2017-01-22 17:08:00,
2017-01-22 11:13:00,51.8,45.5,29.70,NNE,28,18.4,18.4,79,0.00,CLR,,0.13,424.0,WeatherDisplay:10.37,2017-01-22 17:13:00,
2017-01-22 11:18:00,52.5,45.8,29.70,North,349,12.7,12.7,78,0.00,CLR,,0.13,408.0,WeatherDisplay:10.37,2017-01-22 17:18:00,
2017-01-22 11:23:00,52.5,43.7,29.70,NNW,338,16.1,16.1,72,0.00,CLR,,0.13,396.0,WeatherDisplay:10.37,2017-01-22 17:23:00,
2017-01-22 11:27:00,52.4,43.6,29.70,NNE,13,15.0,15.0,72,0.00,CLR,,0.13,448.0,WeatherDisplay:10.37,2017-01-22 17:27:00,
2017-01-22 11:32:00,52.7,43.6,29.70,North,5,18.4,18.4,71,0.00,CLR,,0.13,459.0,WeatherDisplay:10.37,2017-01-22 17:32:00,
2017-01-22 11:37:00,53.0,43.1,29.70,NNW,337,19.6,19.6,69,0.00,CLR,,0.13,462.0,WeatherDisplay:10.37,2017-01-22 17:37:00,
2017-01-22 11:42:00,53.3,43.4,29.70,North,351,15.0,15.0,69,0.00,CLR,,0.13,506.0,WeatherDisplay:10.37,2017-01-22 17:42:00,
2017-01-22 11:47:00,53.6,43.3,29.70,North,5,23.0,23.0,68,0.00,CLR,,0.13,464.0,WeatherDisplay:10.37,2017-01-22 17:47:00,
2017-01-22 11:52:00,53.8,43.1,29.70,North,5,19.6,19.6,67,0.00,CLR,,0.13,519.0,WeatherDisplay:10.37,2017-01-22 17:52:00,
2017-01-22 11:57:00,54.0,42.9,29.70,North,355,17.3,17.3,66,0.00,CLR,,0.13,526.0,WeatherDisplay:10.37,2017-01-22 17:57:00,
2017-01-22 12:02:00,54.1,42.6,29.70,North,5,16.1,16.1,65,0.00,CLR,,0.13,599.0,WeatherDisplay:10.37,2017-01-22 18:02:00,
2017-01-22 12:07:00,54.5,42.2,29.70,NNW,333,26.5,26.5,63,0.00,CLR,,0.13,587.0,WeatherDisplay:10.37,2017-01-22 18:07:00,
2017-01-22 12:12:00,54.4,42.5,29.70,NNE,18,26.5,26.5,64,0.00,CLR,,0.13,568.0,WeatherDisplay:10.37,2017-01-22 18:12:00,
2017-01-22 12:17:00,55.1,43.5,29.71,NNW,340,16.1,16.1,65,0.00,CLR,,0.13,578.0,WeatherDisplay:10.37,2017-01-22 18:17:00,
2017-01-22 12:23:00,55.4,43.0,29.71,NNE,32,20.7,20.7,63,0.00,CLR,,0.13,594.0,WeatherDisplay:10.37,2017-01-22 18:23:00,
2017-01-22 12:27:00,55.6,43.6,29.71,NNW,340,21.0,21.0,64,0.00,CLR,,0.13,584.0,WeatherDisplay:10.37,2017-01-22 18:27:00,
2017-01-22 12:33:00,55.0,42.2,29.71,North,5,21.9,21.9,62,0.00,CLR,,0.13,540.0,WeatherDisplay:10.37,2017-01-22 18:33:00,
2017-01-22 12:38:00,55.3,43.3,29.71,North,355,15.0,15.0,64,0.00,CLR,,0.13,513.0,WeatherDisplay:10.37,2017-01-22 18:38:00,
2017-01-22 12:43:00,55.5,43.1,29.72,North,351,16.1,16.1,63,0.00,CLR,,0.13,478.0,WeatherDisplay:10.37,2017-01-22 18:43:00,
2017-01-22 12:48:00,56.1,43.3,29.72,North,350,16.1,16.1,62,0.00,CLR,,0.13,471.0,WeatherDisplay:10.37,2017-01-22 18:48:00,
2017-01-22 12:53:00,55.6,42.4,29.71,NNW,336,28.8,28.8,61,0.00,CLR,,0.13,471.0,WeatherDisplay:10.37,2017-01-22 18:53:00,
2017-01-22 12:58:00,55.8,43.0,29.71,NW,325,18.4,18.4,62,0.00,CLR,,0.13,517.0,WeatherDisplay:10.37,2017-01-22 18:58:00,
2017-01-22 13:03:00,55.9,43.1,29.71,North,360,16.1,16.1,62,0.00,FEW,,0.13,566.0,WeatherDisplay:10.37,2017-01-22 19:03:00,
2017-01-22 13:08:00,55.9,43.1,29.71,North,350,18.4,18.4,62,0.00,FEW,,0.13,610.0,WeatherDisplay:10.37,2017-01-22 19:08:00,
2017-01-22 13:13:00,56.2,42.9,29.71,NNW,335,18.4,18.4,61,0.00,FEW,,0.13,577.0,WeatherDisplay:10.37,2017-01-22 19:13:00,
2017-01-22 13:18:00,56.5,43.6,29.71,North,9,9.2,9.2,62,0.00,FEW,,0.13,570.0,WeatherDisplay:10.37,2017-01-22 19:18:00,
2017-01-22 13:23:00,56.6,42.4,29.71,NNW,340,21.9,21.9,59,0.00,FEW,,0.13,577.0,WeatherDisplay:10.37,2017-01-22 19:23:00,
2017-01-22 13:28:00,56.4,42.2,29.71,North,11,18.4,18.4,59,0.00,FEW,,0.13,594.0,WeatherDisplay:10.37,2017-01-22 19:28:00,
2017-01-22 13:33:00,55.9,42.6,29.71,North,9,19.6,19.6,61,0.00,FEW,,0.13,657.0,WeatherDisplay:10.37,2017-01-22 19:33:00,
2017-01-22 13:38:00,56.4,43.1,29.71,NNW,344,15.0,15.0,61,0.00,FEW,,0.13,580.0,WeatherDisplay:10.37,2017-01-22 19:38:00,
2017-01-22 13:43:00,56.3,42.1,29.72,NNW,329,18.4,18.4,59,0.00,FEW,,0.13,584.0,WeatherDisplay:10.37,2017-01-22 19:43:00,
2017-01-22 13:48:00,56.4,42.2,29.72,North,355,15.0,15.0,59,0.00,FEW,,0.13,111.0,WeatherDisplay:10.37,2017-01-22 19:48:00,
2017-01-22 13:53:00,56.4,42.2,29.72,North,355,18.4,18.4,59,0.00,FEW,,0.13,552.0,WeatherDisplay:10.37,2017-01-22 19:53:00,
2017-01-22 13:58:00,56.5,41.4,29.72,NNE,15,20.7,20.7,57,0.00,FEW,,0.13,529.0,WeatherDisplay:10.37,2017-01-22 19:58:00,
2017-01-22 14:03:00,56.1,41.5,29.72,NNW,343,13.8,13.8,58,0.00,FEW,,0.13,519.0,WeatherDisplay:10.37,2017-01-22 20:03:00,
2017-01-22 14:08:00,56.0,41.4,29.72,NNW,332,18.4,18.4,58,0.00,FEW,,0.13,520.0,WeatherDisplay:10.37,2017-01-22 20:08:00,
2017-01-22 14:13:00,55.5,40.5,29.72,North,5,19.6,19.6,57,0.00,FEW,,0.13,508.0,WeatherDisplay:10.37,2017-01-22 20:13:00,
2017-01-22 14:18:00,55.9,41.3,29.73,NW,306,13.8,13.8,58,0.00,FEW,,0.13,497.0,WeatherDisplay:10.37,2017-01-22 20:18:00,
2017-01-22 14:23:00,55.8,40.3,29.73,NNW,334,18.4,18.4,56,0.00,FEW,,0.13,489.0,WeatherDisplay:10.37,2017-01-22 20:23:00,
2017-01-22 14:28:00,55.7,39.3,29.73,NW,323,13.8,13.8,54,0.00,FEW,,0.13,475.0,WeatherDisplay:10.37,2017-01-22 20:28:00,
2017-01-22 14:33:00,55.7,38.3,29.73,NNE,16,20.7,20.7,52,0.00,FEW,,0.13,457.0,WeatherDisplay:10.37,2017-01-22 20:33:00,
2017-01-22 14:38:00,56.0,38.1,29.73,North,350,21.9,21.9,51,0.00,FEW,,0.13,436.0,WeatherDisplay:10.37,2017-01-22 20:38:00,
2017-01-22 14:43:00,56.2,39.3,29.73,NNW,348,17.3,17.3,53,0.00,FEW,,0.13,413.0,WeatherDisplay:10.37,2017-01-22 20:43:00,
2017-01-22 14:48:00,56.0,39.1,29.74,North,360,20.7,20.7,53,0.00,FEW,,0.13,396.0,WeatherDisplay:10.37,2017-01-22 20:48:00,
2017-01-22 14:53:00,55.8,38.4,29.74,North,5,25.3,25.3,52,0.00,FEW,,0.13,374.0,WeatherDisplay:10.37,2017-01-22 20:53:00,
2017-01-22 14:58:00,55.9,38.0,29.75,NNW,333,20.0,20.0,51,0.00,FEW,,0.13,355.0,WeatherDisplay:10.37,2017-01-22 20:58:00,
2017-01-22 15:03:00,56.3,37.9,29.74,WNW,284,19.6,19.6,50,0.00,CLR,,0.13,339.0,WeatherDisplay:10.37,2017-01-22 21:03:00,
2017-01-22 15:08:00,56.0,37.1,29.74,NW,318,17.3,17.3,49,0.00,CLR,,0.13,323.0,WeatherDisplay:10.37,2017-01-22 21:08:00,
2017-01-22 15:13:00,56.0,36.6,29.74,NNE,23,21.9,21.9,48,0.00,CLR,,0.13,309.0,WeatherDisplay:10.37,2017-01-22 21:13:00,
2017-01-22 15:18:00,56.0,36.6,29.75,NW,317,16.1,16.1,48,0.00,CLR,,0.13,299.0,WeatherDisplay:10.37,2017-01-22 21:18:00,
2017-01-22 15:23:00,56.2,36.2,29.75,North,355,17.3,17.3,47,0.00,CLR,,0.13,292.0,WeatherDisplay:10.37,2017-01-22 21:23:00,
2017-01-22 15:28:00,56.4,36.4,29.75,NNW,327,13.8,13.8,47,0.00,CLR,,0.13,287.0,WeatherDisplay:10.37,2017-01-22 21:28:00,
2017-01-22 15:33:00,56.5,37.0,29.75,North,351,16.1,16.1,48,0.00,CLR,,0.13,279.0,WeatherDisplay:10.37,2017-01-22 21:33:00,
2017-01-22 15:38:00,56.6,37.1,29.76,WNW,296,24.0,24.0,48,0.00,CLR,,0.13,274.0,WeatherDisplay:10.37,2017-01-22 21:38:00,
2017-01-22 15:43:00,56.2,35.7,29.76,NNW,347,15.0,15.0,46,0.00,CLR,,0.13,269.0,WeatherDisplay:10.37,2017-01-22 21:43:00,
2017-01-22 15:48:00,56.0,36.0,29.76,NW,321,18.4,18.4,47,0.00,CLR,,0.13,264.0,WeatherDisplay:10.37,2017-01-22 21:48:00,
2017-01-22 15:53:00,56.0,36.0,29.76,North,355,19.6,19.6,47,0.00,CLR,,0.13,257.0,WeatherDisplay:10.37,2017-01-22 21:53:00,
2017-01-22 15:58:00,56.1,36.1,29.77,NNW,339,15.0,15.0,47,0.00,CLR,,0.13,250.0,WeatherDisplay:10.37,2017-01-22 21:58:00,
2017-01-22 16:03:00,56.2,36.2,29.77,NNW,333,18.4,18.4,47,0.00,CLR,,0.13,239.0,WeatherDisplay:10.37,2017-01-22 22:03:00,
2017-01-22 16:08:00,56.0,35.5,29.77,North,360,19.6,19.6,46,0.00,CLR,,0.13,225.0,WeatherDisplay:10.37,2017-01-22 22:08:00,
2017-01-22 16:13:00,56.0,35.5,29.77,NW,322,15.0,15.0,46,0.00,CLR,,0.13,214.0,WeatherDisplay:10.37,2017-01-22 22:13:00,
2017-01-22 16:18:00,56.0,36.0,29.77,NNW,348,13.8,13.8,47,0.00,CLR,,0.13,199.0,WeatherDisplay:10.37,2017-01-22 22:18:00,
2017-01-22 16:23:00,56.1,37.2,29.78,NNW,334,11.5,11.5,49,0.00,CLR,,0.13,181.0,WeatherDisplay:10.37,2017-01-22 22:23:00,
2017-01-22 16:28:00,55.9,36.5,29.78,NW,323,15.0,15.0,48,0.00,CLR,,0.13,163.0,WeatherDisplay:10.37,2017-01-22 22:28:00,
2017-01-22 16:33:00,55.8,35.9,29.79,North,350,15.0,15.0,47,0.00,CLR,,0.13,148.0,WeatherDisplay:10.37,2017-01-22 22:33:00,
2017-01-22 16:38:00,55.5,35.6,29.79,NNW,336,17.0,17.0,47,0.00,CLR,,0.13,130.0,WeatherDisplay:10.37,2017-01-22 22:38:00,
2017-01-22 16:43:00,55.2,34.2,29.80,NW,324,12.7,12.7,45,0.00,CLR,,0.13,111.0,WeatherDisplay:10.37,2017-01-22 22:43:00,
2017-01-22 16:48:00,55.1,34.1,29.80,NW,315,13.8,13.8,45,0.00,CLR,,0.13,95.0,WeatherDisplay:10.37,2017-01-22 22:48:00,
2017-01-22 16:53:00,55.0,34.6,29.80,NW,321,13.0,13.0,46,0.00,CLR,,0.13,72.0,WeatherDisplay:10.37,2017-01-22 22:53:00,
2017-01-22 16:58:00,54.9,35.0,29.80,NW,325,18.4,18.4,47,0.00,CLR,,0.13,46.0,WeatherDisplay:10.37,2017-01-22 22:58:00,
2017-01-22 17:03:00,54.7,35.4,29.81,North,11,13.8,13.8,48,0.00,CLR,,0.13,37.0,WeatherDisplay:10.37,2017-01-22 23:03:00,
2017-01-22 17:08:00,54.6,35.8,29.81,NNW,329,8.1,8.1,49,0.00,CLR,,0.13,30.0,WeatherDisplay:10.37,2017-01-22 23:08:00,
2017-01-22 17:13:00,54.5,36.2,29.81,North,350,11.5,11.5,50,0.00,CLR,,0.13,26.0,WeatherDisplay:10.37,2017-01-22 23:13:00,
2017-01-22 17:18:00,54.4,36.1,29.81,NNW,332,12.0,12.0,50,0.00,CLR,,0.13,23.0,WeatherDisplay:10.37,2017-01-22 23:18:00,
2017-01-22 17:23:00,54.3,35.5,29.81,NNW,346,12.7,12.7,49,0.00,CLR,,0.13,14.0,WeatherDisplay:10.37,2017-01-22 23:23:00,
2017-01-22 17:28:00,54.1,34.3,29.81,NNW,339,19.6,19.6,47,0.00,CLR,,0.13,11.0,WeatherDisplay:10.37,2017-01-22 23:28:00,
2017-01-22 17:33:00,54.0,33.1,29.82,NNW,335,12.7,12.7,45,0.00,CLR,,0.13,11.0,WeatherDisplay:10.37,2017-01-22 23:33:00,
2017-01-22 17:38:00,53.7,33.4,29.82,North,355,15.0,15.0,46,0.00,CLR,,0.13,7.0,WeatherDisplay:10.37,2017-01-22 23:38:00,
2017-01-22 17:43:00,53.5,33.2,29.83,NW,319,13.8,13.8,46,0.00,CLR,,0.13,5.0,WeatherDisplay:10.37,2017-01-22 23:43:00,
2017-01-22 17:48:00,53.2,33.5,29.83,NNW,332,11.0,11.0,47,0.00,CLR,,0.13,0.0,WeatherDisplay:10.37,2017-01-22 23:48:00,
2017-01-22 17:53:00,53.0,33.3,29.84,NNW,341,11.5,11.5,47,0.00,CLR,,0.13,0.0,WeatherDisplay:10.37,2017-01-22 23:53:00,
2017-01-22 17:58:00,52.7,33.5,29.84,NNW,336,11.5,11.5,48,0.00,CLR,,0.13,0.0,WeatherDisplay:10.37,2017-01-22 23:58:00,
2017-01-22 18:03:00,52.4,33.8,29.84,NNW,327,9.2,9.2,49,0.00,CLR,,0.13,0.0,WeatherDisplay:10.37,2017-01-23 00:03:00,
2017-01-22 18:04:00,52.4,33.8,29.84,NNW,329,9.0,9.0,49,0.00,CLR,,0.13,0.0,WeatherDisplay:10.37,2017-01-23 00:04:00,
2017-01-22 18:09:00,52.1,33.5,29.84,WNW,296,11.5,11.5,49,0.00,CLR,,0.13,0.0,WeatherDisplay:10.37,2017-01-23 00:09:00,
2017-01-22 18:14:00,51.8,34.2,29.85,NW,317,9.2,9.2,51,0.00,CLR,,0.13,0.0,WeatherDisplay:10.37,2017-01-23 00:14:00,
2017-01-22 18:19:00,51.6,34.0,29.85,NW,315,10.4,10.4,51,0.00,CLR,,0.13,0.0,WeatherDisplay:10.37,2017-01-23 00:19:00,
2017-01-22 18:24:00,51.3,34.3,29.85,NNW,329,3.5,3.5,52,0.00,CLR,,0.13,0.0,WeatherDisplay:10.37,2017-01-23 00:24:00,
2017-01-22 18:29:00,51.0,34.5,29.85,NW,314,9.2,9.2,53,0.00,CLR,,0.13,0.0,WeatherDisplay:10.37,2017-01-23 00:29:00,
2017-01-22 18:34:00,50.8,34.7,29.85,WNW,301,10.4,10.4,54,0.00,CLR,,0.13,0.0,WeatherDisplay:10.37,2017-01-23 00:34:00,
2017-01-22 18:39:00,50.6,34.6,29.85,NW,321,10.0,10.0,54,0.00,CLR,,0.13,0.0,WeatherDisplay:10.37,2017-01-23 00:39:00,
2017-01-22 18:44:00,50.5,34.9,29.86,NNW,331,10.0,10.0,55,0.00,CLR,,0.13,0.0,WeatherDisplay:10.37,2017-01-23 00:44:00,
2017-01-22 18:49:00,50.4,34.8,29.86,NNW,336,12.0,12.0,55,0.00,CLR,,0.13,0.0,WeatherDisplay:10.37,2017-01-23 00:49:00,
2017-01-22 18:54:00,50.3,34.3,29.87,NNW,336,11.5,11.5,54,0.00,CLR,,0.13,0.0,WeatherDisplay:10.37,2017-01-23 00:54:00,
2017-01-22 18:59:00,50.2,34.2,29.87,NNW,336,11.5,11.5,54,0.00,CLR,,0.13,0.0,WeatherDisplay:10.37,2017-01-23 00:59:00,
2017-01-22 19:04:00,50.0,34.5,29.87,NW,324,9.2,9.2,55,0.00,CLR,,0.13,0.0,WeatherDisplay:10.37,2017-01-23 01:04:00,
2017-01-22 19:09:00,49.8,34.3,29.88,NNW,328,9.2,9.2,55,0.00,CLR,,0.13,0.0,WeatherDisplay:10.37,2017-01-23 01:09:00,
2017-01-22 19:14:00,49.6,34.1,29.88,NNW,331,8.1,8.1,55,0.00,CLR,,0.13,0.0,WeatherDisplay:10.37,2017-01-23 01:14:00,
2017-01-22 19:19:00,49.4,33.9,29.88,NNW,329,8.1,8.1,55,0.00,CLR,,0.13,0.0,WeatherDisplay:10.37,2017-01-23 01:19:00,
2017-01-22 19:24:00,49.3,33.8,29.89,NNW,331,10.4,10.4,55,0.00,CLR,,0.13,0.0,WeatherDisplay:10.37,2017-01-23 01:24:00,
2017-01-22 19:29:00,49.2,33.7,29.89,NNW,327,9.2,9.2,55,0.00,CLR,,0.13,0.0,WeatherDisplay:10.37,2017-01-23 01:29:00,
2017-01-22 19:34:00,49.0,33.5,29.89,NW,314,5.8,5.8,55,0.00,CLR,,0.13,0.0,WeatherDisplay:10.37,2017-01-23 01:34:00,
2017-01-22 19:39:00,48.7,33.7,29.88,NNW,347,4.6,4.6,56,0.00,CLR,,0.13,0.0,WeatherDisplay:10.37,2017-01-23 01:39:00,
2017-01-22 19:44:00,48.4,33.9,29.88,NNW,339,8.1,8.1,57,0.00,CLR,,0.13,0.0,WeatherDisplay:10.37,2017-01-23 01:44:00,
2017-01-22 19:49:00,48.2,34.1,29.88,NNW,329,9.2,9.2,58,0.00,CLR,,0.13,0.0,WeatherDisplay:10.37,2017-01-23 01:49:00,
2017-01-22 19:54:00,48.0,34.3,29.89,NNW,330,8.1,8.1,59,0.00,CLR,,0.13,0.0,WeatherDisplay:10.37,2017-01-23 01:54:00,
2017-01-22 19:59:00,47.9,34.3,29.88,NW,326,10.4,10.4,59,0.00,CLR,,0.13,0.0,WeatherDisplay:10.37,2017-01-23 01:59:00,
2017-01-22 20:05:00,47.7,34.5,29.88,NNW,336,6.0,6.5,60,0.00,CLR,,0.13,0.0,WeatherDisplay:10.37,2017-01-23 02:05:00,
2017-01-22 20:10:00,47.6,34.4,29.88,NNW,346,9.2,9.2,60,0.00,CLR,,0.13,0.0,WeatherDisplay:10.37,2017-01-23 02:10:00,
2017-01-22 20:15:00,47.5,34.3,29.88,NNW,337,9.2,9.2,60,0.00,CLR,,0.13,0.0,WeatherDisplay:10.37,2017-01-23 02:15:00,
2017-01-22 20:20:00,47.3,34.1,29.88,NNW,338,8.1,8.1,60,0.00,CLR,,0.13,0.0,WeatherDisplay:10.37,2017-01-23 02:20:00,
2017-01-22 20:25:00,47.3,34.5,29.88,NNW,346,8.1,8.1,61,0.00,CLR,,0.13,0.0,WeatherDisplay:10.37,2017-01-23 02:25:00,
2017-01-22 20:30:00,47.2,34.4,29.88,North,355,9.2,9.2,61,0.00,CLR,,0.13,0.0,WeatherDisplay:10.37,2017-01-23 02:30:00,
2017-01-22 20:35:00,47.2,34.4,29.89,NNW,327,8.1,8.1,61,0.00,CLR,,0.13,0.0,WeatherDisplay:10.37,2017-01-23 02:35:00,
2017-01-22 20:40:00,47.1,34.3,29.89,NNW,327,8.1,8.1,61,0.00,CLR,,0.13,0.0,WeatherDisplay:10.37,2017-01-23 02:40:00,
2017-01-22 20:45:00,47.0,34.2,29.90,NNW,327,5.8,5.8,61,0.00,CLR,,0.13,0.0,WeatherDisplay:10.37,2017-01-23 02:45:00,
2017-01-22 20:50:00,46.8,34.5,29.90,NNW,327,2.3,2.3,62,0.00,CLR,,0.13,0.0,WeatherDisplay:10.37,2017-01-23 02:50:00,
2017-01-22 20:55:00,46.6,34.3,29.90,NNW,327,4.0,4.0,62,0.00,CLR,,0.13,0.0,WeatherDisplay:10.37,2017-01-23 02:55:00,
2017-01-22 21:00:00,46.3,34.0,29.90,NNW,327,4.0,4.0,62,0.00,CLR,,0.13,0.0,WeatherDisplay:10.37,2017-01-23 03:00:00,
2017-01-22 21:05:00,46.1,34.2,29.91,NNW,327,3.5,3.5,63,0.00,CLR,,0.13,0.0,WeatherDisplay:10.37,2017-01-23 03:05:00,
2017-01-22 21:10:00,45.7,33.8,29.91,NNW,327,4.6,4.6,63,0.00,CLR,,0.13,0.0,WeatherDisplay:10.37,2017-01-23 03:10:00,
2017-01-22 21:15:00,45.4,33.9,29.91,NNW,327,3.5,0.0,64,0.00,CLR,,0.13,0.0,WeatherDisplay:10.37,2017-01-23 03:15:00,
2017-01-22 21:20:00,45.2,33.7,29.91,NNW,327,1.0,1.0,64,0.00,CLR,,0.13,0.0,WeatherDisplay:10.37,2017-01-23 03:20:00,
2017-01-22 21:25:00,44.8,33.4,29.92,NNW,327,0.0,0.0,64,0.00,CLR,,0.13,0.0,WeatherDisplay:10.37,2017-01-23 03:25:00,
2017-01-22 21:30:00,44.5,33.5,29.92,NNW,327,1.0,1.0,65,0.00,CLR,,0.13,0.0,WeatherDisplay:10.37,2017-01-23 03:30:00,
2017-01-22 21:35:00,44.1,33.1,29.93,NNW,327,2.3,0.0,65,0.00,CLR,,0.13,0.0,WeatherDisplay:10.37,2017-01-23 03:35:00,
2017-01-22 21:40:00,43.7,33.1,29.93,NNW,327,0.0,0.0,66,0.00,CLR,,0.13,0.0,WeatherDisplay:10.37,2017-01-23 03:40:00,
2017-01-22 21:45:00,43.3,33.1,29.93,NNW,327,3.5,3.5,67,0.00,CLR,,0.13,0.0,WeatherDisplay:10.37,2017-01-23 03:45:00,
2017-01-22 21:50:00,43.0,33.2,29.93,NNW,327,2.3,2.3,68,0.00,CLR,,0.13,0.0,WeatherDisplay:10.37,2017-01-23 03:50:00,
2017-01-22 21:55:00,42.8,33.0,29.93,NNW,327,2.3,2.3,68,0.00,CLR,,0.13,0.0,WeatherDisplay:10.37,2017-01-23 03:55:00,